ADDS METAR Data INFO
IDs: Format: Raw Decoded Include TAF

Data at: 1430 UTC 22 Feb 2018

KOWD 221353Z 07010KT 10SM OVC080 07/M04 A3063 RMK AO2 SLP371 T00671039
KOWD 221253Z 35006KT 10SM OVC085 07/M06 A3063 RMK AO2 SLP372 T00671056
KOWD 221153Z 35004KT 10SM OVC080 07/M04 A3061 RMK AO2 SLP365 T00721044 10133 20072 51030
KOWD 221053Z AUTO 02008KT 10SM OVC075 07/M04 A3059 RMK AO2 SLP357 T00721044
KOWD 220953Z AUTO 34009KT 10SM OVC070 08/M03 A3055 RMK AO2 SLP344 T00831033
KOWD 220853Z AUTO 34008KT 10SM OVC070 09/M04 A3052 RMK AO2 SLP334 T00941039 53029
KOWD 220753Z AUTO 34007G14KT 310V010 10SM OVC065 11/M07 A3048 RMK AO2 SLP322 T01111067
KOWD 220653Z AUTO 33007G14KT 300V360 10SM OVC060 12/M06 A3047 RMK AO2 SLP317 T01221061
KOWD 220553Z AUTO 36007G14KT 330V030 10SM OVC060 13/04 A3043 RMK AO2 SLP305 T01330039 10206 20133 53042
KOWD 220453Z AUTO 35009KT 10SM OVC055 14/07 A3039 RMK AO2 SLP289 T01390067 402330089
KOWD 220353Z AUTO 36009G15KT 10SM OVC055 16/09 A3035 RMK AO2 SLP277 T01560094
KOWD 212353Z 21005KT 10SM CLR 18/14 A3020 RMK AO2 SLP225 T01830139 10233 20183 53029
KOWD 212253Z 21007KT 10SM CLR 20/14 A3016 RMK AO2 SLP211 T02000139
KOWD 212153Z 19007KT 10SM CLR 22/14 A3013 RMK AO2 SLP201 T02170139
KOWD 212053Z 20013KT 10SM CLR 23/14 A3011 RMK AO2 SLP196 T02330139 56012
KOWD 211953Z 19011G17KT 10SM CLR 23/14 A3012 RMK AO2 SLP198 T02330144
KOWD 211853Z 21010KT 10SM CLR 22/14 A3012 RMK AO2 SLP199 T02220139
KOWD 211753Z 22013KT 10SM CLR 21/14 A3015 RMK AO2 SLP208 T02110139 10222 20150 58025
KOWD 211653Z 21010G18KT 10SM CLR 21/14 A3018 RMK AO2 SLP219 T02060144
KOWD 211553Z 22013KT 10SM FEW015 19/14 A3021 RMK AO2 SLP228 T01940144
KOWD 211537Z 22013KT 10SM SCT015 19/14 A3021 RMK AO2 T01890144
KOWD 211453Z 22011G18KT 10SM OVC013 18/14 A3022 RMK AO2 SLP233 T01780144 58001
KOWD 211353Z 22012G20KT 10SM OVC012 17/14 A3022 RMK AO2 SLP234 T01720144
KOWD 211253Z 22009KT 10SM OVC011 16/14 A3023 RMK AO2 SLP236 T01610139
KOWD 210753Z AUTO 17004KT 6SM BR CLR 10/09 A3026 RMK AO2 SLP247 T01000089
KOWD 210653Z AUTO 16004KT 6SM BR CLR 10/09 A3027 RMK AO2 SLP251 T01000094
KOWD 210553Z AUTO 16005KT 8SM CLR 11/10 A3028 RMK AO2 SLP254 T01110100 10161 20106 51004